CN22 weather

CLOSED Northrop Anaheim Heliport
Anaheim, California, United States

Public forecast

Using degrees Fahrenheit for public forecast. Weather courtesy of forecast.io.

Closest aviation weather report (METAR) to Northrop Anaheim Heliport

Closest report is Fullerton Municipal Airport, 3.2 nm (5.9 km) W. Retrieved 2020/07/02 11:53 UTC (23 minutes ago):

KFUL 021153Z AUTO 13006KT 10SM OVC020 19/13 A2989 RMK AO2 SLP122 T01890128 10194 20183 53001

Closest aviation forecast (TAF) to Northrop Anaheim Heliport

Forecast is more than 6 hours old.

Closest forecast is Los Alamitos Army Air Field, 8.1 nm (15.0 km) WSW. Retrieved 2020/07/02 05:06 UTC (7 hours ago):

TAF TAF KSLI 020501Z 0205/0311 22004KT 9999 SKC QNH2989INS BECMG 0209/0210 18005KT 9000 BR BKN016 QNH2990INS BECMG 0211/0212 19004KT 9000 BR OVC015 QNH2992INS BECMG 0217/0218 18003KT 9999 NSW FEW018 QNH2994INS BECMG 0220/0221 23005KT 9999 SKC QNH2993INS TX26/0300Z TN18/0209Z